METAR AND TAF INFORMATION
METAR FOR LIBG
ADDS - METARS form results

(1927 UTC 02 October 2022)
Data provider http://aviationweather.gov/metar/data/
 
Forecast for: COR
Text: TAF COR LIBG 021603Z 0217/0224 VRB05KT 9999 FEW030
Forecast period: 1700 UTC 02 October 2022 to 0000 UTC 03 October 2022
Forecast type: FROM: standard forecast or significant change
Winds: variable direction winds at 6 MPH (5 knots; 2.6 m/s)
Visibility: 6 or more miles (10+ km)
Ceiling: at least 12,000 feet AGL
Clouds: few clouds at 3000 feet AGL
Weather: no significant weather forecast for this period

 AIRPORT MAP

 RUNWAY INFORMATION
Runway 17 Runway length 5610 ft Runway width 148 ft
Runway elevation 215 ft Runway displaced threshold 0 ft Runway heading 169
Runway 35 Runway length 5610 ft Runway width 148 ft
Runway elevation 195 ft Runway displaced threshold 0 ft Runway heading 349

 AIRPORT FREQUENCIES
Type APP Name APP Frequency 118.7 MHZ
Type TWR Name TWR Frequency 118.7 MHZ

 AIRPORT NEAR NAVIGATION AIDS
Type NDB Name Grottaglie Frequency 331 KHZ



Powered by Virtual Airlines Manager [v2.6.2]